Airport View

Enter AWOS ICAO identifier for current METAR.

ex. KFNL

KDEH 080530Z AUTO 18009G15KT 10SM CLR 21/19 A3002 RMK AO2

8 Aug 2020 05:32

Frequency: 120.925

Phone: 563-382-2990

Other Area AWOS: KFKA - KPDC - KOLZ - KCCY

TAF KLSE 072320Z 0800/0824 17012G20KT P6SM SCT050 SCT250 FM080100 17011KT P6SM SCT050 SCT120 FM081100 17010KT P6SM VCSH OVC025 FM081700 18009KT P6SM BKN035